This is the latest recevied weather packets stored in our database for station/object KC5L-7. If no packets are shown the sender has not sent any weather packets the latest 10 day(s).
| Time | Temp. | Humidity | Pressure | Rain* | Wind** | Luminosity | Snow |
|---|---|---|---|---|---|---|---|
| 1777960279 | 22.22° C | 81% | 1008.4 hPa | 0 mm | - | - | - |
| 1777958481 | 22.78° C | 79% | 1008.2 hPa | 0 mm | - | - | - |
| 1777957880 | 22.78° C | 79% | 1008.3 hPa | 0 mm | - | - | - |
| 1777957280 | 22.78° C | 77% | 1008.3 hPa | 0 mm | - | - | - |
| 1777956680 | 22.78° C | 77% | 1008.2 hPa | 0 mm | - | - | - |
| 1777956080 | 23.33° C | 76% | 1008.1 hPa | 0 mm | - | - | - |
| 1777954880 | 23.33° C | 76% | 1008.1 hPa | 0 mm | - | - | - |
| 1777954280 | 23.33° C | 74% | 1008 hPa | 0 mm | - | - | - |
| 1777953680 | 23.89° C | 73% | 1008.1 hPa | 0 mm | - | - | - |
| 1777953080 | 23.89° C | 73% | 1008 hPa | 0 mm | - | - | - |
| 1777952480 | 23.89° C | 71% | 1007.8 hPa | 0 mm | - | - | - |
| 1777951880 | 23.89° C | 70% | 1007.7 hPa | 0 mm | - | - | - |
| 1777951279 | 23.89° C | 68% | 1007.7 hPa | 0 mm | - | - | - |
| 1777950680 | 24.44° C | 68% | 1007.7 hPa | 0 mm | - | - | - |
| 1777950080 | 24.44° C | 67% | 1007.7 hPa | 0 mm | - | - | - |
| 1777948879 | 24.44° C | 65% | 1007.8 hPa | 0 mm | - | - | - |
| 1777948280 | 24.44° C | 64% | 1007.6 hPa | 0 mm | - | - | - |
| 1777947680 | 25° C | 64% | 1007.5 hPa | 0 mm | - | - | - |
| 1777947079 | 25° C | 62% | 1007.5 hPa | 0 mm | - | - | - |
| 1777946480 | 25° C | 61% | 1007.2 hPa | 0 mm | - | - | - |
| 1777945880 | 25° C | 61% | 1007.1 hPa | 0 mm | - | - | - |
| 1777945280 | 25.56° C | 59% | 1007.1 hPa | 0 mm | - | - | - |
| 1777944680 | 25.56° C | 59% | 1007 hPa | 0 mm | - | - | - |
| 1777944081 | 25.56° C | 58% | 1006.9 hPa | 0 mm | - | - | - |
| 1777943480 | -17.78° C | 100% | 0 hPa | 0 mm | - | - | - |
* Rain latest hour (hover to see other rain measurements)
** Current wind speed in m/s (hover to see current wind gust speed)